AST,Max TemperatureF,Mean TemperatureF,Min TemperatureF,Max Dew PointF,MeanDew PointF,Min DewpointF,Max Humidity, Mean Humidity, Min Humidity, Max Sea Level PressureIn, Mean Sea Level PressureIn, Min Sea Level PressureIn, Max VisibilityMiles, Mean VisibilityMiles, Min VisibilityMiles, Max Wind SpeedMPH, Mean Wind SpeedMPH, Max Gust SpeedMPH,PrecipitationIn, CloudCover, Events, WindDirDegrees
2013-9-1,89,82,75,79,77,74,100,82,63,29.92,29.87,29.80,16,8,6,15,4,,0.00,3,,313
2013-9-2,90,84,77,79,78,77,94,77,4,29.89,29.83,29.77,16,8,6,10,2,,0.00,4,Thunderstorm,269
2013-9-3,89,84,79,81,78,76,89,80,69,29.89,29.82,29.77,16,8,6,17,7,,0.00,4,Thunderstorm,198
2013-9-4,88,84,79,81,79,77,89,80,66,29.95,29.89,29.83,16,8,6,20,14,,0.00,4,,138
2013-9-5,89,83,77,81,79,77,100,81,66,29.98,29.91,29.86,12,7,6,23,16,,0.12,5,Rain-Thunderstorm,134
2013-9-6,88,83,78,79,78,75,100,83,66,29.99,29.93,29.86,16,7,3,21,10,24,0.04,4,Rain-Thunderstorm,128
2013-9-7,88,82,77,79,78,73,89,78,66,29.98,29.93,29.89,15,8,6,21,13,,0.00,3,,115
2013-9-8,89,84,80,79,77,75,89,75,63,29.98,29.92,29.86,12,7,6,21,13,,0.08,2,Rain,116
2013-9-9,89,82,76,77,76,75,94,76,59,29.98,29.92,29.86,10,6,4,18,11,26,0.08,2,Rain,103
2013-9-10,88,83,78,79,77,75,89,78,64,29.99,29.93,29.89,11,7,6,17,9,,0.00,3,Thunderstorm,99
2013-9-11,87,81,75,79,76,74,94,83,68,29.97,29.91,29.83,17,8,5,14,6,,0.31,4,Rain-Thunderstorm,110
2013-9-12,90,82,75,79,77,75,96,82,70,29.86,29.79,29.71,17,8,6,15,4,,0.08,4,Thunderstorm,356
2013-9-13,87,82,76,81,77,73,94,85,66,29.84,29.76,29.71,14,7,6,12,6,,0.04,6,Rain-Thunderstorm,88
2013-9-14,87,80,74,82,79,75,94,82,72,29.94,29.86,29.80,15,7,3,23,12,34,0.47,5,Rain-Thunderstorm,146
2013-9-15,87,82,78,81,78,75,94,84,75,29.99,29.92,29.89,12,7,3,23,17,,0.35,6,Rain-Thunderstorm,122
2013-9-16,89,84,78,79,78,75,94,82,66,29.94,29.89,29.83,14,7,6,23,12,,0.08,6,Rain-Thunderstorm,98
2013-9-17,86,82,78,81,78,75,94,86,74,29.94,29.87,29.80,13,6,2,17,10,,0.04,5,Rain-Thunderstorm,100
2013-9-18,88,84,79,81,79,77,94,83,70,29.95,29.87,29.80,12,7,6,21,15,,0.00,3,Thunderstorm,130
2013-9-19,88,84,79,81,79,77,89,80,72,29.98,29.93,29.89,16,8,6,17,12,,0.00,4,,123
2013-9-20,88,84,79,79,78,76,94,80,62,29.98,29.91,29.86,16,8,6,17,11,,0.00,4,,119
2013-9-21,87,82,77,80,77,75,89,80,69,29.93,29.88,29.83,16,8,2,24,9,,0.55,4,Rain,125
2013-9-22,87,84,80,79,77,75,84,76,67,29.98,29.92,29.86,16,8,6,20,12,,0.00,2,,124
2013-9-23,88,84,80,79,77,75,89,75,66,30.04,29.96,29.92,15,8,5,20,16,,0.00,2,Rain,122
2013-9-24,88,83,78,79,77,73,84,76,66,30.01,29.93,29.88,14,8,6,21,14,,0.00,4,,115
2013-9-25,88,84,79,79,77,73,84,76,68,29.95,29.90,29.83,14,8,6,22,15,,0.00,6,,120
2013-9-26,88,84,78,79,77,75,89,77,66,29.95,29.89,29.83,17,8,4,20,13,,0.00,5,,111
2013-9-27,88,82,77,79,77,75,89,79,66,29.97,29.91,29.86,17,8,2,18,8,,0.00,2,,111
2013-9-28,88,82,77,81,78,74,94,78,58,29.98,29.92,29.86,14,8,6,21,13,,0.00,3,Rain,118
2013-9-29,89,84,78,81,78,77,94,80,66,29.98,29.92,29.86,14,8,5,21,14,,0.12,3,Rain-Thunderstorm,114
2013-9-30,90,85,80,81,77,75,84,76,64,29.98,29.92,29.86,12,7,6,25,15,,0.00,3,Thunderstorm,97